SBOSBO FAO / LPFR
Speedbird OnlineSpeedbird Online FAO / LPFR

Faro Airport
20:27 24°C

Location Faro, Portugal
Latitude: 37.0144004822
Longitude: -7.96590995789
Web Airport Website | Wikipedia
Altitude 7 Meter / 24 Feet
Distance 1,733 KM / 1,077 Miles
from London.
Time Zone UTC +1 hours (Europe/Lisbon)
Codes IATA: FAO
ICAO: LPFR
Currency £1 equals EUR 1.12
Runways
RunwayLength (m)Surface
102490Asphalt
282490Asphalt
Radio
TypeDescriptionFrequency
APPAPP119.4
ATISATIS124.2
GNDGND118.575
TWRTWR118.2
Live ATC
METAR LPFR 241900Z 32011KT CAVOK 24/14 Q1012
TAF TAF LPFR 241700Z 2418/2518 26015KT CAVOK BECMG 2418/2421 33010KT BECMG 2500/2503 36005KT BECMG 2510/2512 20010KT BECMG 2514/2516 25015KT
Weather As Of 24 Sep 2022 20:27
Description Clear sky
Wind 20 km/h from North-West (320°)
Cloud Cover 0%
Precipitation Rain: none, Snow: none
Sunrise 07:21
Sunset 19:26
Lounges CIP Lounge (Temporarily Closed), Main Terminal
Rotations During the last 90 days there were
115 flights from LGW
103 flights from LHR
42 flights from LCY
12 flights from SOU
2 flights from FAO
1 flights from BBS
154 flights to LHR
115 flights to LGW
42 flights to LCY
12 flights to SOU
2 flights to FAO


© 2017-2022 Speedbird Online